createdAt,value
2018-03-03T00:02:06.979Z,146.10
2018-03-03T00:04:35.284Z,140.37
2018-03-03T00:07:03.483Z,130.80
2018-03-03T00:09:31.497Z,132.90
2018-03-03T00:11:59.757Z,138.80
2018-03-03T00:14:27.845Z,145.98
2018-03-03T00:16:56.054Z,140.05
2018-03-03T00:19:24.339Z,145.62
2018-03-03T00:21:52.645Z,137.75
2018-03-03T00:24:20.946Z,153.07
2018-03-03T00:26:49.242Z,137.55
2018-03-03T00:29:17.536Z,135.75
2018-03-03T00:31:45.819Z,142.27
2018-03-03T00:34:14.018Z,133.85
2018-03-03T00:36:42.222Z,143.52
2018-03-03T00:39:10.503Z,144.95
2018-03-03T00:41:38.699Z,134.52
2018-03-03T00:44:06.997Z,131.43
2018-03-03T00:46:35.194Z,130.40
2018-03-03T00:49:03.401Z,129.85
2018-03-03T00:51:31.417Z,124.03
2018-03-03T00:53:59.578Z,137.25
2018-03-03T00:56:27.655Z,125.18
2018-03-03T00:58:55.854Z,131.50
2018-03-03T01:01:24.258Z,124.03
2018-03-03T01:03:52.460Z,113.43
2018-03-03T01:06:20.649Z,118.40
2018-03-03T01:08:48.848Z,121.85
2018-03-03T01:11:17.036Z,122.72
2018-03-03T01:13:45.440Z,128.50
2018-03-03T01:16:13.734Z,108.82
2018-03-03T01:18:42.029Z,113.10
2018-03-03T01:21:10.437Z,114.22
2018-03-03T01:23:38.725Z,111.47
2018-03-03T01:26:06.922Z,126.93
2018-03-03T01:28:35.116Z,111.68
2018-03-03T01:31:03.205Z,125.95
2018-03-03T01:33:31.334Z,119.10
2018-03-03T01:35:59.317Z,120.13
2018-03-03T01:38:27.579Z,115.32
2018-03-03T01:40:55.685Z,132.57
2018-03-03T01:43:23.882Z,123.47
2018-03-03T01:45:51.966Z,127.15
2018-03-03T01:48:20.165Z,112.85
2018-03-03T01:50:48.257Z,122.07
2018-03-03T01:53:16.557Z,117.87
2018-03-03T01:55:44.937Z,123.20
2018-03-03T01:58:13.246Z,127.20
2018-03-03T02:00:41.536Z,101.72
2018-03-03T02:03:09.845Z,119.40
2018-03-03T02:05:38.643Z,112.50
2018-03-03T02:08:06.839Z,117.95
2018-03-03T02:10:35.047Z,123.75
2018-03-03T02:13:04.362Z,121.10
2018-03-03T02:15:32.367Z,107.00
2018-03-03T02:18:00.439Z,121.47
2018-03-03T02:20:28.620Z,117.40
2018-03-03T02:22:56.716Z,105.53
2018-03-03T02:25:24.917Z,109.97
2018-03-03T02:27:53.717Z,106.43
2018-03-03T02:30:21.918Z,110.32
2018-03-03T02:32:50.119Z,103.60
2018-03-03T02:35:18.400Z,120.03
2018-03-03T02:37:46.604Z,114.12
2018-03-03T02:40:14.897Z,111.37
2018-03-03T02:42:43.200Z,109.50
2018-03-03T02:45:11.600Z,115.03
2018-03-03T02:47:39.684Z,118.40
2018-03-03T02:50:07.881Z,106.97
2018-03-03T02:52:36.081Z,124.50
2018-03-03T02:55:04.260Z,109.10
2018-03-03T02:57:33.185Z,108.63
2018-03-03T03:00:01.369Z,115.47
2018-03-03T03:02:29.558Z,127.40
2018-03-03T03:04:57.759Z,115.70
2018-03-03T03:07:25.961Z,119.93
2018-03-03T03:09:54.242Z,108.12
2018-03-03T03:12:22.336Z,112.50
2018-03-03T03:14:50.635Z,111.90
2018-03-03T03:17:19.034Z,114.90
2018-03-03T03:19:47.438Z,110.68
2018-03-03T03:22:15.841Z,112.57
2018-03-03T03:24:44.239Z,118.80
2018-03-03T03:27:12.541Z,124.97
2018-03-03T03:29:40.837Z,98.35
2018-03-03T03:32:09.020Z,124.50
2018-03-03T03:34:37.216Z,108.68
2018-03-03T03:37:05.166Z,110.72
2018-03-03T03:39:33.401Z,104.57
2018-03-03T03:42:01.602Z,123.18
2018-03-03T03:44:29.800Z,125.43
2018-03-03T03:46:57.982Z,140.45
2018-03-03T03:49:26.177Z,122.57
2018-03-03T03:51:54.264Z,116.25
2018-03-03T03:54:22.485Z,122.32
2018-03-03T03:56:50.560Z,136.25
2018-03-03T03:59:18.956Z,130.32
2018-03-03T04:01:47.265Z,122.05
2018-03-03T04:04:15.481Z,127.57
2018-03-03T04:06:43.740Z,126.43
2018-03-03T04:09:12.547Z,134.23
2018-03-03T04:11:40.960Z,138.90
2018-03-03T04:14:09.161Z,120.87
2018-03-03T04:16:37.281Z,124.45
2018-03-03T04:19:05.336Z,135.63
2018-03-03T04:21:33.417Z,133.80
2018-03-03T04:24:01.623Z,136.40
2018-03-03T04:26:29.716Z,135.10
2018-03-03T04:28:59.237Z,149.35
2018-03-03T04:31:27.666Z,142.75
2018-03-03T04:33:55.818Z,132.93
2018-03-03T04:36:24.116Z,136.50
2018-03-03T04:38:52.635Z,141.02
2018-03-03T04:41:20.943Z,139.30
2018-03-03T04:43:49.318Z,135.57
2018-03-03T04:46:17.621Z,133.32
2018-03-03T04:48:45.919Z,146.87
2018-03-03T04:51:14.201Z,130.73
2018-03-03T04:53:42.414Z,158.43
2018-03-03T04:56:10.539Z,142.70
2018-03-03T04:58:38.499Z,134.50
2018-03-03T05:01:06.783Z,129.60
2018-03-03T05:03:34.876Z,132.02
2018-03-03T05:06:03.078Z,135.37
2018-03-03T05:08:31.369Z,143.77
2018-03-03T05:10:59.572Z,152.60
2018-03-03T05:13:27.658Z,143.18
2018-03-03T05:15:55.954Z,131.37
2018-03-03T05:18:24.236Z,140.77
2018-03-03T05:20:52.642Z,148.85
2018-03-03T05:23:20.834Z,137.85
2018-03-03T05:25:55.941Z,140.43
2018-03-03T05:28:24.230Z,140.45
2018-03-03T05:30:52.589Z,138.07
2018-03-03T05:33:20.876Z,145.00
2018-03-03T05:35:49.176Z,127.53
2018-03-03T05:38:17.577Z,142.45
2018-03-03T05:40:45.760Z,146.57
2018-03-03T05:43:13.857Z,141.35
2018-03-03T05:45:42.062Z,146.95
2018-03-03T05:48:10.257Z,152.90
2018-03-03T05:50:38.439Z,139.18
2018-03-03T05:53:06.535Z,144.55
2018-03-03T05:55:34.742Z,143.02
2018-03-03T05:58:02.839Z,151.65
2018-03-03T06:00:31.022Z,140.25
2018-03-03T06:02:59.220Z,174.05
2018-03-03T06:05:27.626Z,145.73
2018-03-03T06:07:55.797Z,141.40
2018-03-03T06:10:24.106Z,147.85
2018-03-03T06:12:52.396Z,137.32
2018-03-03T06:15:20.703Z,143.57
2018-03-03T06:17:48.982Z,156.65
2018-03-03T06:20:17.282Z,156.73
2018-03-03T06:22:45.497Z,146.62
2018-03-03T06:25:13.675Z,150.55
2018-03-03T06:27:41.769Z,144.70
2018-03-03T06:30:09.973Z,141.10
2018-03-03T06:32:38.064Z,131.25
2018-03-03T06:35:06.251Z,144.95
2018-03-03T06:37:34.449Z,152.27
2018-03-03T06:40:02.653Z,129.82
2018-03-03T06:42:30.738Z,144.27
2018-03-03T06:44:58.843Z,135.88
2018-03-03T06:47:27.318Z,152.20
2018-03-03T06:49:55.482Z,125.43
2018-03-03T06:52:23.565Z,133.27
2018-03-03T06:54:51.808Z,142.62
2018-03-03T06:57:20.106Z,150.85
2018-03-03T06:59:48.395Z,144.02
2018-03-03T07:02:16.595Z,139.48
2018-03-03T07:04:44.788Z,137.85
2018-03-03T07:07:12.984Z,138.98
2018-03-03T07:09:41.179Z,149.50
2018-03-03T07:12:09.365Z,158.12
2018-03-03T07:14:37.463Z,152.68
2018-03-03T07:17:05.661Z,128.00
2018-03-03T07:19:33.745Z,138.40
2018-03-03T07:22:01.949Z,133.40
2018-03-03T07:24:30.044Z,136.60
2018-03-03T07:26:58.285Z,135.93
2018-03-03T07:29:26.666Z,136.48
2018-03-03T07:31:54.770Z,155.85
2018-03-03T07:34:23.031Z,139.43
2018-03-03T07:36:51.522Z,136.77
2018-03-03T07:39:19.812Z,132.63
2018-03-03T07:41:48.956Z,142.40
2018-03-03T07:44:17.162Z,126.05
2018-03-03T07:46:45.525Z,154.10
2018-03-03T07:49:13.719Z,142.48
2018-03-03T07:51:42.458Z,132.73
2018-03-03T07:54:10.823Z,145.18
2018-03-03T07:56:39.337Z,143.37
2018-03-03T07:59:07.733Z,138.55
2018-03-03T08:01:35.817Z,140.05
2018-03-03T08:04:04.077Z,136.88
2018-03-03T08:06:32.516Z,137.12
2018-03-03T08:09:01.157Z,138.20
2018-03-03T08:11:30.678Z,141.98
2018-03-03T08:13:59.236Z,133.30
2018-03-03T08:16:27.956Z,127.70
2018-03-03T08:18:56.340Z,128.35
2018-03-03T08:21:25.995Z,137.50
2018-03-03T08:23:54.380Z,135.85
2018-03-03T08:26:23.894Z,129.82
2018-03-03T08:28:53.421Z,143.90
2018-03-03T08:31:21.952Z,144.60
2018-03-03T08:33:50.847Z,131.20
2018-03-03T08:36:19.231Z,144.73
2018-03-03T08:38:47.407Z,124.10
2018-03-03T08:41:16.269Z,134.32
2018-03-03T08:43:44.809Z,133.73
2018-03-03T08:46:14.803Z,146.65
2018-03-03T08:48:42.928Z,145.43
2018-03-03T08:51:11.483Z,145.25
2018-03-03T08:53:40.285Z,130.95
2018-03-03T08:56:08.550Z,140.62
2018-03-03T08:58:36.729Z,122.43
2018-03-03T09:01:05.629Z,143.62
2018-03-03T09:03:34.208Z,132.35
2018-03-03T09:06:02.467Z,134.82
2018-03-03T09:08:31.820Z,141.57
2018-03-03T09:11:00.202Z,136.88
2018-03-03T09:13:28.769Z,139.98
2018-03-03T09:15:57.159Z,142.00
2018-03-03T09:18:25.978Z,138.77
2018-03-03T09:20:55.040Z,133.40
2018-03-03T09:23:23.311Z,134.65
2018-03-03T09:25:51.513Z,136.82
2018-03-03T09:28:19.682Z,137.23
2018-03-03T09:30:47.792Z,140.18
2018-03-03T09:33:15.998Z,132.52
2018-03-03T09:35:44.949Z,147.95
2018-03-03T09:38:13.405Z,141.07
2018-03-03T09:40:41.584Z,141.60
2018-03-03T09:43:09.784Z,129.80
2018-03-03T09:45:37.925Z,138.48
2018-03-03T09:48:06.187Z,140.70
2018-03-03T09:50:34.464Z,145.10
2018-03-03T09:53:02.817Z,127.15
2018-03-03T09:55:31.262Z,125.05
2018-03-03T09:57:59.567Z,131.75
2018-03-03T10:00:27.864Z,134.23
2018-03-03T10:02:56.160Z,139.35
2018-03-03T10:05:24.556Z,144.77
2018-03-03T10:07:52.748Z,145.77
2018-03-03T10:10:20.936Z,147.40
2018-03-03T10:12:49.139Z,142.62
2018-03-03T10:15:17.330Z,139.02
2018-03-03T10:17:45.644Z,143.02
2018-03-03T10:20:13.930Z,130.80
2018-03-03T10:22:42.117Z,145.95
2018-03-03T10:25:10.244Z,124.72
2018-03-03T10:27:38.298Z,131.77
2018-03-03T10:30:06.509Z,137.32
2018-03-03T10:32:34.840Z,153.70
2018-03-03T10:35:03.245Z,132.65
2018-03-03T10:37:32.619Z,135.23
2018-03-03T10:40:00.911Z,123.60
2018-03-03T10:42:29.208Z,142.15
2018-03-03T10:44:57.640Z,129.98
2018-03-03T10:47:25.904Z,131.77
2018-03-03T10:49:54.197Z,130.55
2018-03-03T10:52:22.409Z,128.45
2018-03-03T10:54:50.707Z,136.15
2018-03-03T10:57:18.882Z,135.07
2018-03-03T10:59:46.981Z,125.62
2018-03-03T11:02:15.100Z,131.68
2018-03-03T11:04:43.240Z,114.37
2018-03-03T11:07:11.474Z,125.00
2018-03-03T11:09:39.768Z,119.15
2018-03-03T11:12:08.002Z,117.57
2018-03-03T11:14:36.224Z,111.32
2018-03-03T11:17:04.717Z,117.22
2018-03-03T11:19:33.043Z,123.18
2018-03-03T11:22:01.350Z,122.32
2018-03-03T11:24:29.649Z,115.55
2018-03-03T11:26:57.773Z,116.43
2018-03-03T11:29:26.905Z,108.82
2018-03-03T11:31:55.149Z,120.47
2018-03-03T11:34:23.366Z,124.00
2018-03-03T11:36:51.740Z,110.78
2018-03-03T11:39:20.270Z,106.30
2018-03-03T11:41:48.426Z,100.87
2018-03-03T11:44:17.413Z,93.97
2018-03-03T11:46:45.543Z,97.55
2018-03-03T11:49:13.636Z,97.25
2018-03-03T11:51:41.730Z,102.28
2018-03-03T11:54:09.907Z,101.22
2018-03-03T11:56:38.208Z,109.93
2018-03-03T11:59:06.603Z,103.90
2018-03-03T12:01:34.921Z,103.70
2018-03-03T12:04:03.207Z,108.15
2018-03-03T12:06:31.503Z,100.50
2018-03-03T12:08:59.895Z,96.32
2018-03-03T12:11:29.116Z,103.40
2018-03-03T12:13:57.315Z,103.20
2018-03-03T12:16:25.620Z,104.78
2018-03-03T12:18:53.804Z,93.12
2018-03-03T12:21:21.907Z,88.85
2018-03-03T12:23:49.983Z,98.72
2018-03-03T12:26:18.084Z,102.68
2018-03-03T12:28:46.379Z,97.75
2018-03-03T12:31:14.572Z,90.65
2018-03-03T12:33:42.864Z,94.60
2018-03-03T12:36:11.004Z,87.75
2018-03-03T12:38:39.319Z,100.80
2018-03-03T12:41:07.717Z,106.63
2018-03-03T12:43:36.052Z,100.45
2018-03-03T12:46:04.473Z,105.50
2018-03-03T12:48:32.962Z,94.47
2018-03-03T12:51:01.246Z,102.00
2018-03-03T12:53:29.560Z,94.30
2018-03-03T12:55:57.758Z,99.07
2018-03-03T12:58:26.173Z,95.18
2018-03-03T13:00:54.341Z,101.22
2018-03-03T13:03:22.429Z,101.47
2018-03-03T13:05:50.624Z,99.22
2018-03-03T13:08:18.689Z,95.20
2018-03-03T13:10:47.008Z,101.28
2018-03-03T13:13:16.321Z,105.28
2018-03-03T13:15:44.425Z,104.85
2018-03-03T13:18:12.618Z,100.38
2018-03-03T13:20:40.947Z,101.38
2018-03-03T13:23:09.250Z,112.75
2018-03-03T13:25:37.510Z,94.13
2018-03-03T13:28:05.717Z,104.22
2018-03-03T13:30:33.841Z,93.68
2018-03-03T13:33:01.914Z,111.37
2018-03-03T13:35:30.209Z,99.10
2018-03-03T13:37:58.339Z,106.15
2018-03-03T13:40:26.531Z,101.40
2018-03-03T13:42:54.917Z,101.87
2018-03-03T13:45:23.017Z,97.97
2018-03-03T13:47:51.258Z,97.53
2018-03-03T13:50:19.381Z,101.82
2018-03-03T13:52:47.993Z,106.87
2018-03-03T13:55:16.310Z,96.90
2018-03-03T13:57:45.316Z,105.68
2018-03-03T14:00:13.456Z,106.65
2018-03-03T14:02:41.883Z,104.70
2018-03-03T14:05:10.060Z,115.00
2018-03-03T14:07:38.443Z,116.85
2018-03-03T14:10:06.725Z,99.15
2018-03-03T14:12:35.056Z,103.22
2018-03-03T14:15:03.316Z,107.30
2018-03-03T14:17:31.469Z,101.87
2018-03-03T14:19:59.804Z,124.65
2018-03-03T14:22:27.962Z,108.28
2018-03-03T14:24:56.340Z,125.22
2018-03-03T14:27:24.517Z,120.10
2018-03-03T14:29:52.824Z,109.50
2018-03-03T14:32:20.972Z,108.65
2018-03-03T14:34:49.403Z,118.18
2018-03-03T14:37:17.555Z,111.45
2018-03-03T14:39:45.636Z,109.07
2018-03-03T14:42:14.405Z,108.22
2018-03-03T14:44:42.977Z,102.57
2018-03-03T14:47:11.236Z,101.60
2018-03-03T14:49:39.484Z,103.82
2018-03-03T14:52:07.639Z,101.15
2018-03-03T14:54:35.856Z,107.63
2018-03-03T14:57:04.075Z,111.18
2018-03-03T14:59:32.362Z,103.70
2018-03-03T15:02:00.371Z,98.85
2018-03-03T15:04:28.546Z,101.85
2018-03-03T15:06:56.847Z,103.47
2018-03-03T15:09:25.138Z,102.72
2018-03-03T15:11:53.344Z,110.78
2018-03-03T15:14:21.550Z,108.22
2018-03-03T15:16:49.726Z,111.15
2018-03-03T15:19:17.920Z,100.78
2018-03-03T15:21:46.049Z,103.78
2018-03-03T15:24:14.108Z,103.55
2018-03-03T15:26:42.305Z,101.35
2018-03-03T15:29:10.515Z,99.47
2018-03-03T15:31:38.784Z,114.97
2018-03-03T15:34:06.931Z,108.87
2018-03-03T15:36:35.184Z,104.35
2018-03-03T15:39:03.372Z,92.05
2018-03-03T15:41:31.561Z,96.80
2018-03-03T15:43:59.773Z,104.38
2018-03-03T15:46:27.956Z,97.88
2018-03-03T15:48:55.965Z,104.65
2018-03-03T15:51:24.047Z,112.10
2018-03-03T15:53:52.146Z,103.93
2018-03-03T15:56:20.349Z,108.07
2018-03-03T15:58:48.738Z,98.87
2018-03-03T16:01:16.837Z,103.47
2018-03-03T16:03:45.011Z,102.03
2018-03-03T16:06:13.204Z,106.63
2018-03-03T16:08:41.503Z,118.85
2018-03-03T16:11:09.797Z,103.75
2018-03-03T16:13:37.908Z,112.03
2018-03-03T16:16:06.695Z,110.55
2018-03-03T16:18:35.108Z,111.35
2018-03-03T16:21:03.292Z,110.57
2018-03-03T16:23:31.628Z,109.20
2018-03-03T16:25:59.939Z,109.60
2018-03-03T16:28:28.180Z,111.82
2018-03-03T16:30:56.239Z,106.70
2018-03-03T16:33:24.467Z,119.30
2018-03-03T16:35:52.774Z,116.88
2018-03-03T16:38:20.883Z,117.15
2018-03-03T16:40:48.991Z,126.22
2018-03-03T16:43:17.354Z,124.10
2018-03-03T16:45:45.754Z,125.68
2018-03-03T16:48:14.240Z,121.07
2018-03-03T16:50:42.653Z,128.00
2018-03-03T16:53:11.025Z,119.60
2018-03-03T16:55:39.363Z,122.20
2018-03-03T16:58:07.554Z,136.90
2018-03-03T17:00:35.827Z,114.03
2018-03-03T17:03:04.032Z,120.57
2018-03-03T17:05:32.339Z,104.43
2018-03-03T17:08:00.416Z,112.03
2018-03-03T17:10:28.608Z,123.93
2018-03-03T17:12:56.918Z,109.68
2018-03-03T17:15:25.069Z,117.22
2018-03-03T17:17:53.299Z,162.43
2018-03-03T17:20:21.585Z,129.50
2018-03-03T17:22:49.720Z,143.15
2018-03-03T17:25:18.800Z,161.18
2018-03-03T17:27:47.004Z,136.32
2018-03-03T17:30:15.257Z,152.98
2018-03-03T17:32:43.596Z,161.65
2018-03-03T17:35:11.677Z,143.85
2018-03-03T17:37:39.921Z,153.32
2018-03-03T17:40:08.390Z,132.90
2018-03-03T17:42:36.437Z,144.13
2018-03-03T17:45:04.616Z,150.77
2018-03-03T17:47:32.978Z,128.05
2018-03-03T17:50:01.103Z,134.63
2018-03-03T17:52:29.328Z,133.23
2018-03-03T17:54:57.406Z,134.35
2018-03-03T17:57:25.943Z,128.85
2018-03-03T17:59:54.293Z,142.40
2018-03-03T18:02:22.638Z,134.45
2018-03-03T18:04:50.947Z,141.37
2018-03-03T18:07:19.325Z,144.65
2018-03-03T18:09:47.744Z,146.30
2018-03-03T18:12:16.325Z,147.02
2018-03-03T18:14:44.832Z,137.02
2018-03-03T18:17:13.442Z,135.37
2018-03-03T18:19:42.194Z,150.82
2018-03-03T18:22:10.402Z,131.50
2018-03-03T18:24:38.637Z,151.85
2018-03-03T18:27:06.944Z,149.00
2018-03-03T18:29:35.045Z,133.95
2018-03-03T18:32:03.168Z,145.45
2018-03-03T18:34:31.650Z,134.25
2018-03-03T18:37:00.318Z,135.68
2018-03-03T18:39:28.625Z,129.25
2018-03-03T18:41:57.256Z,163.30
2018-03-03T18:44:26.137Z,140.10
2018-03-03T18:46:54.667Z,134.55
2018-03-03T18:49:23.029Z,135.10
2018-03-03T18:51:51.843Z,142.98
2018-03-03T18:54:20.854Z,137.15
2018-03-03T18:56:49.338Z,134.43
2018-03-03T18:59:17.745Z,137.60
2018-03-03T19:01:46.591Z,133.48
2018-03-03T19:04:15.406Z,136.18
2018-03-03T19:06:47.396Z,135.95
2018-03-03T19:09:16.844Z,122.82
2018-03-03T19:11:45.789Z,121.78
2018-03-03T19:14:14.314Z,124.68
2018-03-03T19:16:43.733Z,134.63
2018-03-03T19:19:12.362Z,138.30
2018-03-03T19:21:41.003Z,140.90
2018-03-03T19:24:10.857Z,133.63
2018-03-03T19:26:39.491Z,145.82
2018-03-03T19:29:08.367Z,131.95
2018-03-03T19:31:36.752Z,163.80
2018-03-03T19:34:05.249Z,136.07
2018-03-03T19:36:34.178Z,144.80
2018-03-03T19:39:04.607Z,128.65
2018-03-03T19:41:34.357Z,144.25
2018-03-03T19:44:03.260Z,136.80
2018-03-03T19:46:31.486Z,131.00
2018-03-03T19:49:01.220Z,139.57
2018-03-03T19:51:29.443Z,133.85
2018-03-03T19:53:57.758Z,140.55
2018-03-03T19:56:26.074Z,143.55
2018-03-03T19:58:54.158Z,135.65
2018-03-03T20:01:22.594Z,148.82
2018-03-03T20:03:51.797Z,140.05
2018-03-03T20:06:20.150Z,139.75
2018-03-03T20:08:48.696Z,145.95
2018-03-03T20:11:17.078Z,140.18
2018-03-03T20:13:45.584Z,129.02
2018-03-03T20:16:14.008Z,139.80
2018-03-03T20:18:42.372Z,142.25
2018-03-03T20:21:10.557Z,146.65
2018-03-03T20:23:38.763Z,138.15
2018-03-03T20:26:06.918Z,140.68
2018-03-03T20:28:35.016Z,133.50
2018-03-03T20:31:03.239Z,135.25
2018-03-03T20:33:31.343Z,143.90
2018-03-03T20:35:59.536Z,130.75
2018-03-03T20:38:27.941Z,128.65
2018-03-03T20:40:56.236Z,132.10
2018-03-03T20:43:24.322Z,138.90
2018-03-03T20:45:52.460Z,131.75
2018-03-03T20:48:20.698Z,143.25
2018-03-03T20:50:48.900Z,125.18
2018-03-03T20:53:17.110Z,128.25
2018-03-03T20:55:46.099Z,136.60
2018-03-03T20:58:14.201Z,138.18
2018-03-03T21:00:42.404Z,146.77
2018-03-03T21:03:10.599Z,153.18
2018-03-03T21:05:38.779Z,129.15
2018-03-03T21:08:06.978Z,145.10
2018-03-03T21:10:34.967Z,133.37
2018-03-03T21:13:03.159Z,146.77
2018-03-03T21:15:31.261Z,135.85
2018-03-03T21:17:59.449Z,145.93
2018-03-03T21:20:27.535Z,129.87
2018-03-03T21:22:55.959Z,145.60
2018-03-03T21:25:24.243Z,141.05
2018-03-03T21:27:52.435Z,136.93
2018-03-03T21:30:20.638Z,128.85
2018-03-03T21:32:49.842Z,143.45
2018-03-03T21:35:17.951Z,134.80
2018-03-03T21:37:46.228Z,128.12
2018-03-03T21:40:14.438Z,140.07
2018-03-03T21:42:42.625Z,122.87
2018-03-03T21:45:10.725Z,143.60
2018-03-03T21:47:39.224Z,146.40
2018-03-03T21:50:07.244Z,141.82
2018-03-03T21:52:42.685Z,123.25
2018-03-03T21:55:10.864Z,127.78
2018-03-03T21:57:39.564Z,125.43
2018-03-03T22:00:07.848Z,126.43
2018-03-03T22:02:36.048Z,131.27
2018-03-03T22:05:04.158Z,147.13
2018-03-03T22:07:32.346Z,132.87
2018-03-03T22:10:00.530Z,137.85
2018-03-03T22:12:28.663Z,133.10
2018-03-03T22:14:57.025Z,125.82
2018-03-03T22:17:25.285Z,130.48
2018-03-03T22:19:53.377Z,135.45
2018-03-03T22:22:21.806Z,141.62
2018-03-03T22:24:50.121Z,130.82
2018-03-03T22:27:18.853Z,127.82
2018-03-03T22:29:47.330Z,125.28
2018-03-03T22:32:16.383Z,132.27
2018-03-03T22:34:44.754Z,145.70
2018-03-03T22:37:13.641Z,137.07
2018-03-03T22:39:42.477Z,131.68
2018-03-03T22:42:11.602Z,112.47
2018-03-03T22:44:42.092Z,143.43
2018-03-03T22:47:11.883Z,145.75
2018-03-03T22:49:41.292Z,122.30
2018-03-03T22:52:09.992Z,150.93
2018-03-03T22:54:38.913Z,129.93
2018-03-03T22:57:07.972Z,135.37
2018-03-03T22:59:36.247Z,130.05
2018-03-03T23:02:05.080Z,142.27
2018-03-03T23:04:33.787Z,132.27
2018-03-03T23:07:04.943Z,132.63
2018-03-03T23:12:11.352Z,146.00
2018-03-03T23:14:40.172Z,130.05
2018-03-03T23:17:08.589Z,131.65
2018-03-03T23:19:37.029Z,133.77
2018-03-03T23:22:05.884Z,124.78
2018-03-03T23:24:34.436Z,130.68
2018-03-03T23:27:02.895Z,118.05
2018-03-03T23:29:31.745Z,127.05
2018-03-03T23:32:00.165Z,129.77
2018-03-03T23:34:28.905Z,133.65
2018-03-03T23:36:57.303Z,142.02
2018-03-03T23:39:25.701Z,122.87
2018-03-03T23:41:54.191Z,123.68
2018-03-03T23:44:22.807Z,127.50
2018-03-03T23:46:52.228Z,122.20
2018-03-03T23:49:20.872Z,126.28
2018-03-03T23:51:49.545Z,135.27
2018-03-03T23:54:17.872Z,124.05
2018-03-03T23:56:46.327Z,131.68
2018-03-03T23:59:14.858Z,133.65
